Time;durP1;ratioP1;P1;durP2;ratioP2;P2;SDS_P1;SDS_P2;PMS_P1;PMS_P2;Temp;Humidity;BMP_temperature;BMP_pressure;BME280_temperature;BME280_humidity;BME280_pressure;Samples;Min_cycle;Max_cycle;Signal;HPM_P1;HPM_P2
2023/05/21 00:01:36;;;;;;;17.33;15.67;;;11.30;81.30;;;;;;5113686;28;20201;-86
2023/05/21 00:04:02;;;;;;;19.20;16.43;;;11.30;81.40;;;;;;5114699;28;20624;-86
2023/05/21 00:06:27;;;;;;;16.63;15.07;;;11.30;81.50;;;;;;5114698;28;20162;-86
2023/05/21 00:08:53;;;;;;;15.63;14.43;;;11.20;81.50;;;;;;5113340;28;20260;-86
2023/05/21 00:11:19;;;;;;;17.30;15.70;;;11.30;81.60;;;;;;5113249;28;20201;-86
2023/05/21 00:13:44;;;;;;;16.87;15.33;;;11.20;81.50;;;;;;5114761;28;20174;-86
2023/05/21 00:16:10;;;;;;;10.80;7.10;;;11.30;81.50;;;;;;5113372;28;20676;-86
2023/05/21 00:18:38;;;;;;;10.27;7.07;;;11.20;81.40;;;;;;5113203;28;20178;-86
2023/05/21 00:21:04;;;;;;;7.40;6.70;;;11.20;81.40;;;;;;5113087;28;20198;-86
2023/05/21 00:23:31;;;;;;;11.23;7.27;;;11.10;81.60;;;;;;5113101;28;20632;-86
2023/05/21 00:25:58;;;;;;;7.83;6.90;;;11.00;81.80;;;;;;5112937;28;20237;-86
2023/05/21 00:28:23;;;;;;;11.63;6.67;;;11.00;82.00;;;;;;5112918;28;20174;-86
2023/05/21 00:30:50;;;;;;;9.90;7.13;;;10.90;82.00;;;;;;5113628;28;20217;-86
2023/05/21 00:33:15;;;;;;;8.87;6.63;;;10.80;82.10;;;;;;5113575;28;20695;-86
2023/05/21 00:35:41;;;;;;;9.07;6.77;;;10.90;82.10;;;;;;5113106;28;20177;-86
2023/05/21 00:38:07;;;;;;;8.53;5.97;;;10.80;82.30;;;;;;5114264;28;20169;-86
2023/05/21 00:40:34;;;;;;;6.97;6.27;;;10.70;82.50;;;;;;5114616;28;20194;-86
2023/05/21 00:43:00;;;;;;;7.23;6.13;;;10.70;82.70;;;;;;5114761;28;20194;-86
2023/05/21 00:45:26;;;;;;;10.70;6.10;;;10.60;82.90;;;;;;5113223;28;20661;-86
2023/05/21 00:47:55;;;;;;;16.53;14.93;;;10.50;83.10;;;;;;5114747;28;20162;-86
2023/05/21 00:50:22;;;;;;;16.00;14.40;;;10.50;83.30;;;;;;5113692;28;20178;-86
2023/05/21 00:52:48;;;;;;;15.50;14.40;;;10.40;83.50;;;;;;5114527;28;20196;-86
2023/05/21 00:55:13;;;;;;;17.13;15.50;;;10.40;83.60;;;;;;5114622;28;20575;-87
2023/05/21 00:57:41;;;;;;;15.47;14.27;;;10.40;83.60;;;;;;5114720;28;20251;-85
2023/05/21 01:00:07;;;;;;;16.57;15.23;;;10.40;83.60;;;;;;5112960;28;20197;-86
2023/05/21 01:02:35;;;;;;;16.27;14.73;;;10.40;83.60;;;;;;5112982;28;20186;-86
2023/05/21 01:05:03;;;;;;;15.77;14.27;;;10.40;83.70;;;;;;5112389;28;20170;-86
2023/05/21 01:07:29;;;;;;;16.13;14.73;;;10.40;83.70;;;;;;5113073;28;20177;-86
2023/05/21 01:09:54;;;;;;;15.73;14.27;;;10.40;83.60;;;;;;5114418;28;20174;-86
2023/05/21 01:12:22;;;;;;;16.37;14.63;;;10.40;83.70;;;;;;5112837;28;20204;-86
2023/05/21 01:14:49;;;;;;;15.03;13.93;;;10.40;83.60;;;;;;5113126;28;20183;-86
2023/05/21 01:17:15;;;;;;;15.93;14.53;;;10.40;83.60;;;;;;5112963;28;20301;-86
2023/05/21 01:19:43;;;;;;;18.27;14.20;;;10.30;83.60;;;;;;5114277;28;20197;-86
2023/05/21 01:22:11;;;;;;;17.30;15.63;;;10.30;83.70;;;;;;5112781;28;20219;-86
2023/05/21 01:24:37;;;;;;;13.70;12.30;;;10.30;83.80;;;;;;5113195;28;20195;-86
2023/05/21 01:27:06;;;;;;;16.33;14.83;;;10.30;83.80;;;;;;5112997;28;20193;-86
2023/05/21 01:29:32;;;;;;;14.90;13.90;;;10.30;83.80;;;;;;5113033;28;20174;-86
2023/05/21 01:32:11;;;;;;;14.37;13.07;;;10.30;83.80;;;;;;5112286;28;20205;-86
2023/05/21 01:34:55;;;;;;;15.60;14.00;;;10.30;83.80;;;;;;5112288;28;20162;-86
2023/05/21 01:37:39;;;;;;;15.50;14.20;;;10.30;83.80;;;;;;5112424;28;20162;-86
2023/05/21 01:40:19;;;;;;;14.80;13.47;;;10.30;83.80;;;;;;5112171;28;20582;-86
2023/05/21 01:42:46;;;;;;;15.50;14.07;;;10.30;83.90;;;;;;5112081;28;20190;-86
2023/05/21 01:45:14;;;;;;;16.23;14.60;;;10.20;84.00;;;;;;5113352;28;20652;-86
2023/05/21 01:47:40;;;;;;;15.37;14.27;;;10.20;84.00;;;;;;5112128;28;20155;-86
2023/05/21 01:50:07;;;;;;;16.63;15.10;;;10.20;84.10;;;;;;5112086;28;20174;-85
2023/05/21 01:52:33;;;;;;;15.77;14.50;;;10.20;84.10;;;;;;5111983;28;20201;-86
2023/05/21 01:54:59;;;;;;;16.47;15.07;;;10.20;84.30;;;;;;5113287;28;20579;-86
2023/05/21 01:57:24;;;;;;;15.57;14.00;;;10.20;84.50;;;;;;5112064;28;20182;-86
2023/05/21 01:59:52;;;;;;;15.73;14.43;;;10.10;84.60;;;;;;5113194;28;20693;-86
2023/05/21 02:02:18;;;;;;;16.10;14.57;;;10.10;84.70;;;;;;5111994;28;20698;-86
2023/05/21 02:04:44;;;;;;;15.47;14.20;;;10.10;84.90;;;;;;5113199;28;20166;-86
2023/05/21 02:07:13;;;;;;;14.30;13.07;;;10.00;85.00;;;;;;5111946;28;20719;-86
2023/05/21 02:09:39;;;;;;;14.57;13.47;;;10.00;85.10;;;;;;5113497;28;20202;-86
2023/05/21 02:12:05;;;;;;;16.73;14.07;;;10.00;85.30;;;;;;5111765;28;20701;-86
2023/05/21 02:14:32;;;;;;;15.07;13.57;;;10.00;85.40;;;;;;5111807;28;20277;-86
2023/05/21 02:16:59;;;;;;;15.43;14.03;;;10.00;85.40;;;;;;5115174;28;20212;-86
2023/05/21 02:19:25;;;;;;;14.70;13.37;;;10.10;85.40;;;;;;5116644;28;20273;-86
2023/05/21 02:21:50;;;;;;;15.60;14.00;;;10.00;85.40;;;;;;5116666;28;20285;-86
2023/05/21 02:24:16;;;;;;;17.43;14.97;;;10.00;85.40;;;;;;5115454;28;20171;-86
2023/05/21 02:26:42;;;;;;;15.03;13.67;;;10.00;85.50;;;;;;5115453;28;20626;-86
2023/05/21 02:29:07;;;;;;;15.00;13.57;;;9.90;85.70;;;;;;5115292;28;20166;-86
2023/05/21 02:31:33;;;;;;;14.60;13.47;;;9.90;85.80;;;;;;5116541;28;20193;-86
2023/05/21 02:33:59;;;;;;;16.27;13.70;;;9.80;86.10;;;;;;5116480;28;20205;-86
2023/05/21 02:36:25;;;;;;;14.47;13.13;;;9.80;86.30;;;;;;5116603;28;20169;-86
2023/05/21 02:38:50;;;;;;;14.87;13.43;;;9.80;86.60;;;;;;5114995;28;20170;-85
2023/05/21 02:41:16;;;;;;;15.03;12.40;;;9.80;86.80;;;;;;5116597;28;20197;-85
2023/05/21 02:43:41;;;;;;;14.40;12.93;;;9.80;87.00;;;;;;5116933;27;20174;-86
2023/05/21 02:46:07;;;;;;;12.73;6.37;;;9.80;87.10;;;;;;5115016;28;20547;-86
2023/05/21 02:48:33;;;;;;;10.30;5.87;;;9.80;87.20;;;;;;5115096;28;20620;-86
2023/05/21 02:50:58;;;;;;;10.13;6.07;;;9.80;87.30;;;;;;5116091;27;20778;-86
2023/05/21 02:53:24;;;;;;;11.37;5.90;;;9.80;87.50;;;;;;5116160;28;20181;-86
2023/05/21 02:55:50;;;;;;;8.20;5.13;;;9.80;87.50;;;;;;5114776;28;20213;-86
2023/05/21 02:58:15;;;;;;;13.37;5.30;;;9.90;87.50;;;;;;5116059;28;20187;-86
2023/05/21 03:00:41;;;;;;;8.83;6.13;;;9.90;87.60;;;;;;5114592;28;20198;-86
2023/05/21 03:03:06;;;;;;;7.60;6.03;;;9.90;87.60;;;;;;5114805;28;20640;-86
2023/05/21 03:05:32;;;;;;;9.90;5.57;;;9.90;87.50;;;;;;5114779;28;20182;-86
2023/05/21 03:07:57;;;;;;;8.17;5.10;;;10.00;87.50;;;;;;5116292;28;20205;-86
2023/05/21 03:10:23;;;;;;;7.47;5.27;;;10.00;87.50;;;;;;5114667;28;20178;-86
2023/05/21 03:12:48;;;;;;;10.63;5.97;;;10.10;87.50;;;;;;5115776;28;20198;-86
2023/05/21 03:15:15;;;;;;;11.17;5.67;;;10.10;87.50;;;;;;5115794;28;20175;-86
2023/05/21 03:17:41;;;;;;;10.50;6.70;;;10.10;87.50;;;;;;5115740;28;20194;-86
2023/05/21 03:20:08;;;;;;;14.57;11.67;;;10.20;87.50;;;;;;5114388;28;20710;-85
2023/05/21 03:22:36;;;;;;;16.20;12.03;;;10.20;87.50;;;;;;5114144;28;20197;-86
2023/05/21 03:25:01;;;;;;;14.63;11.37;;;10.30;87.40;;;;;;5114163;28;20223;-86
2023/05/21 03:27:27;;;;;;;13.20;11.33;;;10.30;87.40;;;;;;5113659;28;20182;-86
2023/05/21 03:29:54;;;;;;;20.90;11.73;;;10.30;87.40;;;;;;5114107;28;20213;-86
2023/05/21 03:32:20;;;;;;;13.43;10.83;;;10.30;87.40;;;;;;5115278;28;20186;-86
2023/05/21 03:34:45;;;;;;;18.07;10.77;;;10.40;87.40;;;;;;5114202;28;20170;-86
2023/05/21 03:37:11;;;;;;;11.37;10.37;;;10.40;87.40;;;;;;5115365;28;20209;-86
2023/05/21 03:39:36;;;;;;;12.13;10.57;;;10.40;87.50;;;;;;5115186;28;20243;-86
2023/05/21 03:42:02;;;;;;;12.53;10.70;;;10.40;87.50;;;;;;5113866;28;20663;-86
2023/05/21 03:44:31;;;;;;;16.57;11.77;;;10.40;87.50;;;;;;5113932;28;20173;-86
2023/05/21 03:46:56;;;;;;;15.30;11.17;;;10.40;87.60;;;;;;5113875;28;20636;-86
2023/05/21 03:49:22;;;;;;;14.27;10.83;;;10.40;87.60;;;;;;5115128;28;20185;-86
2023/05/21 03:51:47;;;;;;;12.97;10.70;;;10.40;87.70;;;;;;5113769;28;20216;-86
2023/05/21 03:54:13;;;;;;;11.57;10.37;;;10.40;87.80;;;;;;5114964;28;20178;-86
2023/05/21 03:56:38;;;;;;;10.83;9.70;;;10.50;87.80;;;;;;5113834;28;20177;-86
2023/05/21 03:59:04;;;;;;;13.47;10.70;;;10.50;87.80;;;;;;5113607;28;20209;-86
2023/05/21 04:01:31;;;;;;;14.07;10.40;;;10.50;87.90;;;;;;5114893;28;20186;-86
2023/05/21 04:03:57;;;;;;;11.37;10.13;;;10.50;87.90;;;;;;5114992;28;20159;-86
2023/05/21 04:06:22;;;;;;;18.67;11.53;;;10.50;88.00;;;;;;5113577;28;20176;-86
2023/05/21 04:08:48;;;;;;;12.33;10.27;;;10.40;88.10;;;;;;5113378;28;20181;-86
2023/05/21 04:11:13;;;;;;;12.77;9.93;;;10.50;88.20;;;;;;5114528;28;20194;-86
2023/05/21 04:13:39;;;;;;;12.33;9.60;;;10.50;88.20;;;;;;5113320;28;20170;-86
2023/05/21 04:16:07;;;;;;;11.70;10.33;;;10.50;88.40;;;;;;5114604;28;20166;-86
2023/05/21 04:18:33;;;;;;;14.57;10.50;;;10.50;88.50;;;;;;5113175;28;20174;-86
2023/05/21 04:20:59;;;;;;;14.13;11.27;;;10.50;88.60;;;;;;5114423;28;20258;-86
2023/05/21 04:23:25;;;;;;;14.63;11.20;;;10.50;88.70;;;;;;5114494;27;20245;-86
2023/05/21 04:25:50;;;;;;;13.67;9.93;;;10.50;88.80;;;;;;5113151;28;20683;-86
2023/05/21 04:28:19;;;;;;;13.70;10.47;;;10.60;88.80;;;;;;5113237;28;20176;-86
2023/05/21 04:30:46;;;;;;;16.07;10.33;;;10.70;88.80;;;;;;5113145;28;20660;-86
2023/05/21 04:33:16;;;;;;;14.33;10.87;;;10.80;88.80;;;;;;5112978;28;20533;-86
2023/05/21 04:35:43;;;;;;;12.30;11.03;;;10.80;88.70;;;;;;5113072;28;20181;-86
2023/05/21 04:38:09;;;;;;;16.30;10.47;;;10.90;88.60;;;;;;5113378;28;20174;-86
2023/05/21 04:40:35;;;;;;;14.80;10.47;;;10.90;88.50;;;;;;5113087;28;20206;-86
2023/05/21 04:43:00;;;;;;;14.03;10.73;;;11.00;88.50;;;;;;5114145;28;20674;-86
2023/05/21 04:45:27;;;;;;;18.57;12.03;;;11.10;88.50;;;;;;5113090;28;20178;-86
2023/05/21 04:47:52;;;;;;;15.13;11.10;;;11.10;88.40;;;;;;5114208;28;20635;-86
2023/05/21 04:50:19;;;;;;;12.07;10.80;;;11.20;88.40;;;;;;5112814;28;20177;-86
2023/05/21 04:52:44;;;;;;;13.20;11.33;;;11.20;88.30;;;;;;5112721;28;20193;-86
2023/05/21 04:55:10;;;;;;;20.00;12.13;;;11.30;88.30;;;;;;5112823;28;20197;-86
2023/05/21 04:57:36;;;;;;;16.97;7.87;;;11.30;88.20;;;;;;5112931;28;20200;-86
2023/05/21 05:00:05;;;;;;;13.50;7.30;;;11.30;88.10;;;;;;5112662;28;20663;-86
2023/05/21 05:02:30;;;;;;;11.57;7.20;;;11.50;88.20;;;;;;5112644;28;20189;-86
2023/05/21 05:04:56;;;;;;;18.70;7.67;;;11.40;88.20;;;;;;5114036;28;20245;-86
2023/05/21 05:07:21;;;;;;;11.97;7.90;;;11.50;88.20;;;;;;5113869;28;20211;-86
2023/05/21 05:09:47;;;;;;;14.43;7.73;;;11.60;88.10;;;;;;5113895;28;20178;-86
2023/05/21 05:12:12;;;;;;;10.70;7.63;;;11.60;88.00;;;;;;5113901;28;20198;-86
2023/05/21 05:14:38;;;;;;;18.57;7.97;;;11.70;88.00;;;;;;5113858;28;20181;-86
2023/05/21 05:17:04;;;;;;;14.80;7.13;;;11.80;87.90;;;;;;5113991;28;20198;-86
2023/05/21 05:19:30;;;;;;;17.37;8.10;;;11.80;87.70;;;;;;5113596;28;20201;-87
2023/05/21 05:21:56;;;;;;;17.73;7.13;;;11.90;87.80;;;;;;5113679;28;20655;-86
2023/05/21 05:24:21;;;;;;;15.00;8.20;;;12.00;87.70;;;;;;5112821;28;20177;-86
2023/05/21 05:26:47;;;;;;;13.03;7.73;;;12.10;87.70;;;;;;5112656;28;20182;-86
2023/05/21 05:29:12;;;;;;;17.77;7.20;;;12.10;87.50;;;;;;5113517;28;20195;-86
2023/05/21 05:31:38;;;;;;;16.30;11.67;;;12.20;87.30;;;;;;5113407;28;20656;-86
2023/05/21 05:34:03;;;;;;;17.83;12.67;;;12.20;87.30;;;;;;5112331;28;20197;-86
2023/05/21 05:36:30;;;;;;;19.33;12.43;;;12.30;87.10;;;;;;5112595;28;20260;-86
2023/05/21 05:38:55;;;;;;;13.63;12.23;;;12.40;87.10;;;;;;5112258;28;20173;-86
2023/05/21 05:41:21;;;;;;;16.87;11.60;;;12.50;87.10;;;;;;5113320;28;20189;-85
2023/05/21 05:43:47;;;;;;;14.67;12.40;;;12.50;87.00;;;;;;5113408;28;20548;-86
2023/05/21 05:46:12;;;;;;;13.13;11.93;;;12.60;86.90;;;;;;5113446;28;20185;-86
2023/05/21 05:48:37;;;;;;;14.67;11.33;;;12.70;86.70;;;;;;5113181;28;20182;-86
2023/05/21 05:51:04;;;;;;;16.77;11.73;;;12.80;86.60;;;;;;5114039;28;20310;-85
2023/05/21 05:53:30;;;;;;;16.50;12.03;;;12.80;86.30;;;;;;5116001;28;20559;-86
2023/05/21 05:55:56;;;;;;;18.93;12.27;;;12.80;86.40;;;;;;5115995;28;20257;-86
2023/05/21 05:58:21;;;;;;;16.57;11.77;;;12.90;86.30;;;;;;5117165;27;20225;-86
2023/05/21 06:00:47;;;;;;;13.83;11.83;;;13.00;86.30;;;;;;5117177;28;20209;-85
2023/05/21 06:03:12;;;;;;;13.20;11.90;;;13.10;86.20;;;;;;5117015;28;20170;-85
2023/05/21 06:05:38;;;;;;;16.00;13.40;;;13.10;85.80;;;;;;5116179;28;20198;-86
2023/05/21 06:08:04;;;;;;;17.80;12.83;;;13.20;86.00;;;;;;5116065;28;20268;-86
2023/05/21 06:10:29;;;;;;;15.53;13.03;;;13.30;85.90;;;;;;5115655;28;20539;-86
2023/05/21 06:12:55;;;;;;;17.37;13.20;;;13.40;85.80;;;;;;5117103;28;20178;-85
2023/05/21 06:15:20;;;;;;;14.23;12.13;;;13.40;85.10;;;;;;5115747;28;20173;-86
2023/05/21 06:17:46;;;;;;;17.50;13.07;;;13.50;85.50;;;;;;5117574;28;20173;-86
2023/05/21 06:20:12;;;;;;;12.87;11.57;;;13.60;85.20;;;;;;5116909;28;20688;-86
2023/05/21 06:22:37;;;;;;;15.57;8.80;;;13.70;85.20;;;;;;5116923;28;20273;-87
2023/05/21 06:25:03;;;;;;;11.60;8.30;;;13.70;85.00;;;;;;5116625;28;20216;-86
2023/05/21 06:27:29;;;;;;;16.10;9.00;;;13.80;85.10;;;;;;5115440;28;20181;-86
2023/05/21 06:29:58;;;;;;;15.07;8.77;;;13.90;85.10;;;;;;5116879;28;20176;-86
2023/05/21 06:32:24;;;;;;;13.17;8.50;;;13.90;84.80;;;;;;5117000;28;20659;-86
2023/05/21 06:34:49;;;;;;;17.47;9.10;;;14.00;84.70;;;;;;5116000;28;20593;-87
2023/05/21 06:37:20;;;;;;;12.33;8.73;;;14.10;84.90;;;;;;5116631;28;20178;-86
2023/05/21 06:39:46;;;;;;;16.87;8.73;;;14.20;84.20;;;;;;5115454;28;20233;-86
2023/05/21 06:42:11;;;;;;;14.90;9.17;;;14.20;84.30;;;;;;5116531;28;20691;-86
2023/05/21 06:44:37;;;;;;;16.23;9.50;;;14.30;84.10;;;;;;5116391;28;20245;-86
2023/05/21 06:47:02;;;;;;;17.23;9.50;;;14.30;84.00;;;;;;5115266;27;20609;-86
2023/05/21 06:49:28;;;;;;;19.77;9.83;;;14.40;84.30;;;;;;5115181;28;20700;-85
2023/05/21 06:51:53;;;;;;;13.47;8.80;;;14.40;84.10;;;;;;5116417;27;20690;-86
2023/05/21 06:54:19;;;;;;;14.90;9.37;;;14.40;83.80;;;;;;5115024;28;20178;-86
2023/05/21 06:56:44;;;;;;;17.33;9.83;;;14.50;84.10;;;;;;5116184;28;20184;-86
2023/05/21 06:59:10;;;;;;;14.60;8.80;;;14.50;83.90;;;;;;5114830;28;20671;-86
2023/05/21 07:01:36;;;;;;;16.40;13.60;;;14.60;84.00;;;;;;5114152;28;20667;-86
2023/05/21 07:04:01;;;;;;;16.87;13.00;;;14.70;84.00;;;;;;5114597;28;20266;-86
2023/05/21 07:06:27;;;;;;;14.73;12.27;;;14.70;83.80;;;;;;5114858;28;20201;-86
2023/05/21 07:08:52;;;;;;;14.73;13.23;;;14.80;83.50;;;;;;5116114;28;20177;-86
2023/05/21 07:11:18;;;;;;;15.80;13.60;;;14.90;83.80;;;;;;5114983;28;20201;-86
2023/05/21 07:13:43;;;;;;;17.63;13.57;;;15.00;84.00;;;;;;5114662;28;20219;-86
2023/05/21 07:16:09;;;;;;;15.37;13.50;;;15.00;83.60;;;;;;5114450;28;20178;-86
2023/05/21 07:18:34;;;;;;;16.23;14.05;;;15.20;83.90;;;;;;5114869;28;20261;-86
2023/05/21 07:21:00;;;;;;;20.40;14.35;;;15.30;83.50;;;;;;5114881;28;20257;-86
2023/05/21 07:23:25;;;;;;;15.57;13.98;;;15.30;83.00;;;;;;5115109;28;20230;-86
2023/05/21 07:25:51;;;;;;;19.02;14.68;;;15.30;83.00;;;;;;5114441;28;20201;-86
2023/05/21 07:28:17;;;;;;;19.93;14.90;;;15.40;82.70;;;;;;5114512;28;20181;-86
2023/05/21 07:30:42;;;;;;;21.40;15.60;;;15.50;82.40;;;;;;5115712;27;20174;-86
2023/05/21 07:33:08;;;;;;;16.60;14.88;;;15.60;82.90;;;;;;5115861;28;20178;-86
2023/05/21 07:35:33;;;;;;;18.67;15.20;;;15.70;82.40;;;;;;5114526;28;20173;-86
2023/05/21 07:37:59;;;;;;;17.52;15.55;;;15.80;82.40;;;;;;5114337;28;20671;-86
2023/05/21 07:40:24;;;;;;;16.77;15.00;;;15.90;82.80;;;;;;5115836;28;20215;-86
2023/05/21 07:42:51;;;;;;;20.50;15.00;;;16.00;82.40;;;;;;5114233;28;20190;-86
2023/05/21 07:45:16;;;;;;;11.88;10.55;;;16.20;82.80;;;;;;5115575;27;20162;-87
2023/05/21 07:47:43;;;;;;;12.77;11.48;;;16.10;81.30;;;;;;5115708;28;20166;-86
2023/05/21 07:50:09;;;;;;;15.90;11.18;;;16.20;82.00;;;;;;5114030;28;20178;-86
2023/05/21 07:52:35;;;;;;;16.15;13.00;;;16.30;82.30;;;;;;5113037;28;20489;-86
2023/05/21 07:55:01;;;;;;;17.05;12.68;;;16.40;81.60;;;;;;5113893;28;20266;-86
2023/05/21 07:57:27;;;;;;;16.90;11.20;;;16.50;81.30;;;;;;5115162;28;20189;-87
2023/05/21 07:59:52;;;;;;;15.73;13.23;;;16.50;81.30;;;;;;5114313;28;20419;-86
2023/05/21 08:02:18;;;;;;;13.68;10.75;;;16.60;80.80;;;;;;5113726;28;20667;-86
2023/05/21 08:04:43;;;;;;;14.95;12.20;;;16.70;80.30;;;;;;5114880;28;20218;-86
2023/05/21 08:07:09;;;;;;;17.10;11.75;;;16.80;80.70;;;;;;5114871;28;20256;-86
2023/05/21 08:09:35;;;;;;;12.27;11.02;;;16.80;80.90;;;;;;5113541;28;20174;-86
2023/05/21 08:12:00;;;;;;;15.65;11.50;;;16.90;80.00;;;;;;5115279;28;20192;-87
2023/05/21 08:14:26;;;;;;;17.27;12.32;;;17.00;80.60;;;;;;5113658;28;20635;-86
2023/05/21 08:16:52;;;;;;;17.13;12.50;;;17.20;80.40;;;;;;5114058;28;20219;-87
2023/05/21 08:19:17;;;;;;;18.00;12.95;;;17.20;80.20;;;;;;5114469;28;20240;-87
2023/05/21 08:21:43;;;;;;;16.42;13.18;;;17.30;79.90;;;;;;5113127;28;20277;-87
2023/05/21 08:24:08;;;;;;;19.27;12.68;;;17.20;79.40;;;;;;5114316;28;20635;-87
2023/05/21 08:26:34;;;;;;;20.25;18.20;;;17.30;79.90;;;;;;5114554;28;20186;-87
2023/05/21 08:28:59;;;;;;;19.88;18.08;;;17.40;80.20;;;;;;5114004;28;20166;-87
2023/05/21 08:31:25;;;;;;;19.90;17.88;;;17.40;79.80;;;;;;5113980;28;20211;-86
2023/05/21 08:33:52;;;;;;;19.27;17.27;;;17.50;79.70;;;;;;5114399;28;20171;-87
2023/05/21 08:36:18;;;;;;;26.63;17.17;;;17.60;79.30;;;;;;5112908;28;20181;-86
2023/05/21 08:38:43;;;;;;;19.88;17.95;;;17.70;80.30;;;;;;5112954;28;20212;-86
2023/05/21 08:41:10;;;;;;;21.25;19.10;;;17.80;79.20;;;;;;5114037;28;20710;-86
2023/05/21 08:43:37;;;;;;;22.58;20.33;;;17.70;78.40;;;;;;5112874;28;20177;-86
2023/05/21 08:46:04;;;;;;;20.75;18.25;;;17.70;79.20;;;;;;5114044;28;20300;-86
2023/05/21 08:48:30;;;;;;;22.05;18.27;;;17.90;80.20;;;;;;5113253;28;20178;-86
2023/05/21 08:50:58;;;;;;;18.42;16.63;;;18.00;79.50;;;;;;5112777;28;20697;-86
2023/05/21 08:53:26;;;;;;;23.67;14.60;;;18.10;78.90;;;;;;5113468;28;20174;-86
2023/05/21 08:55:54;;;;;;;15.50;13.80;;;18.10;79.00;;;;;;5112951;28;20177;-86
2023/05/21 08:58:20;;;;;;;19.13;14.43;;;18.10;78.60;;;;;;5112515;28;20235;-86
2023/05/21 09:00:46;;;;;;;20.45;14.60;;;18.20;79.70;;;;;;5113971;28;20198;-86
2023/05/21 09:03:12;;;;;;;18.75;14.55;;;18.20;78.70;;;;;;5113863;27;20219;-86
2023/05/21 09:05:40;;;;;;;16.70;14.80;;;18.20;78.50;;;;;;5112577;28;20166;-86
2023/05/21 09:08:07;;;;;;;17.00;14.77;;;18.20;78.50;;;;;;5114085;28;20202;-86
2023/05/21 09:10:39;;;;;;;20.27;14.80;;;18.20;78.80;;;;;;5112434;28;20183;-88
2023/05/21 09:13:06;;;;;;;15.45;13.77;;;18.20;78.90;;;;;;5113769;28;20219;-89
2023/05/21 09:15:32;;;;;;;20.42;15.18;;;18.30;78.70;;;;;;5113850;28;20166;-89
2023/05/21 09:17:57;;;;;;;19.58;15.40;;;18.30;79.20;;;;;;5113077;28;20662;-90
2023/05/21 09:20:25;;;;;;;19.58;16.40;;;18.40;79.50;;;;;;5112333;28;20571;-87
2023/05/21 09:22:51;;;;;;;18.63;15.60;;;18.30;78.30;;;;;;5113856;28;20189;-90
2023/05/21 09:25:22;;;;;;;20.77;15.40;;;18.40;78.90;;;;;;5114409;28;20507;-89
2023/05/21 09:27:48;;;;;;;18.67;15.57;;;18.50;79.50;;;;;;5117361;28;20173;-88
2023/05/21 09:30:16;;;;;;;25.17;14.93;;;18.50;78.90;;;;;;5116533;28;20169;-88
2023/05/21 09:32:43;;;;;;;17.83;14.57;;;18.60;79.60;;;;;;5116569;28;20779;-88
2023/05/21 09:35:09;;;;;;;25.58;19.83;;;18.60;78.50;;;;;;5117853;28;20579;-88
2023/05/21 09:37:44;;;;;;;27.83;19.40;;;18.60;79.00;;;;;;5117803;28;20174;-88
2023/05/21 09:40:12;;;;;;;21.50;19.35;;;18.70;79.30;;;;;;5117743;28;20200;-88
2023/05/21 09:42:39;;;;;;;25.63;21.08;;;18.70;79.30;;;;;;5116509;28;20235;-88
2023/05/21 09:45:06;;;;;;;21.83;19.70;;;18.70;79.10;;;;;;5117743;28;20170;-88
2023/05/21 09:47:32;;;;;;;21.88;19.77;;;18.70;79.30;;;;;;5116559;28;20663;-88
2023/05/21 09:49:58;;;;;;;25.88;20.35;;;18.70;78.60;;;;;;5116540;28;20265;-88
2023/05/21 09:52:24;;;;;;;21.17;19.05;;;18.70;78.80;;;;;;5116226;28;20217;-88
2023/05/21 09:54:51;;;;;;;22.42;19.33;;;18.70;79.40;;;;;;5117973;28;20192;-88
2023/05/21 09:57:28;;;;;;;19.77;17.75;;;18.80;79.20;;;;;;5116218;28;20174;-88
2023/05/21 09:59:54;;;;;;;21.98;16.73;;;18.80;79.00;;;;;;5116156;28;20219;-88
2023/05/21 10:02:22;;;;;;;19.73;16.45;;;18.90;79.00;;;;;;5117657;28;20265;-88
2023/05/21 10:04:49;;;;;;;20.48;15.60;;;18.90;79.00;;;;;;5116391;28;20171;-86
2023/05/21 10:07:24;;;;;;;18.58;16.02;;;19.00;79.20;;;;;;5117035;28;20179;-86
2023/05/21 10:09:52;;;;;;;19.77;15.88;;;19.00;78.70;;;;;;5115873;28;20173;-86
2023/05/21 10:12:18;;;;;;;18.42;16.45;;;19.00;79.10;;;;;;5116886;28;20303;-87
2023/05/21 10:14:50;;;;;;;18.73;16.73;;;19.00;78.60;;;;;;5117958;28;20239;-87
2023/05/21 10:17:17;;;;;;;23.35;15.88;;;19.10;78.40;;;;;;5116818;28;20162;-87
2023/05/21 10:19:44;;;;;;;20.73;16.17;;;19.20;78.80;;;;;;5117278;28;20204;-87
2023/05/21 10:22:10;;;;;;;21.20;16.25;;;19.20;78.40;;;;;;5117426;28;20192;-86
2023/05/21 10:24:36;;;;;;;19.05;17.10;;;19.40;79.00;;;;;;5115981;28;20614;-87
2023/05/21 10:27:03;;;;;;;17.75;15.98;;;19.60;78.30;;;;;;5115993;28;20220;-88
2023/05/21 10:29:30;;;;;;;22.50;16.92;;;19.70;78.00;;;;;;5115669;28;20276;-88
2023/05/21 10:31:57;;;;;;;22.85;16.77;;;19.90;78.60;;;;;;5116644;28;20254;-87
2023/05/21 10:34:23;;;;;;;22.25;18.33;;;19.90;76.90;;;;;;5115586;28;20257;-87
2023/05/21 10:36:51;;;;;;;24.58;18.98;;;19.90;77.00;;;;;;5115432;28;20246;-88
2023/05/21 10:39:19;;;;;;;20.63;18.30;;;20.10;76.40;;;;;;5116591;28;20207;-87
2023/05/21 10:42:12;;;;;;;27.45;24.75;;;20.20;76.40;;;;;;5115230;28;20190;-87
2023/05/21 10:45:15;;;;;;;27.98;25.25;;;20.30;76.10;;;;;;5116417;28;20150;-88
2023/05/21 10:47:53;;;;;;;27.80;24.50;;;20.50;75.70;;;;;;5115493;28;20173;-88
2023/05/21 10:50:47;;;;;;;26.95;24.35;;;20.70;75.70;;;;;;5116649;28;20524;-88
2023/05/21 10:53:37;;;;;;;28.48;25.77;;;20.80;75.00;;;;;;5114951;28;20223;-88
2023/05/21 10:56:27;;;;;;;27.23;24.63;;;20.90;74.10;;;;;;5115155;28;20177;-88
2023/05/21 10:59:27;;;;;;;28.35;25.55;;;21.00;74.30;;;;;;5116627;28;20245;-88
2023/05/21 11:01:54;;;;;;;27.77;24.90;;;21.20;74.40;;;;;;5116272;28;20194;-88
2023/05/21 11:04:26;;;;;;;28.15;25.25;;;21.50;73.70;;;;;;5115189;28;20178;-87
2023/05/21 11:06:52;;;;;;;23.30;20.92;;;21.60;73.50;;;;;;5114857;28;20165;-88
2023/05/21 11:09:18;;;;;;;25.55;19.92;;;21.80;73.20;;;;;;5116328;28;20176;-88
2023/05/21 11:11:49;;;;;;;24.15;21.58;;;21.90;72.90;;;;;;5116269;28;20709;-88
2023/05/21 11:14:36;;;;;;;23.52;21.13;;;21.80;71.70;;;;;;5115928;28;20165;-88
2023/05/21 11:17:12;;;;;;;22.77;20.48;;;21.80;72.80;;;;;;5116350;28;20151;-86
2023/05/21 11:19:50;;;;;;;23.70;21.38;;;22.00;73.60;;;;;;5115889;28;20559;-86
2023/05/21 11:22:26;;;;;;;23.60;21.38;;;22.20;71.90;;;;;;5116034;28;20681;-87
2023/05/21 11:24:53;;;;;;;24.13;21.63;;;22.20;70.80;;;;;;5114771;28;20174;-87
2023/05/21 11:27:39;;;;;;;24.80;22.02;;;22.10;71.20;;;;;;5114261;28;20217;-87
2023/05/21 11:30:08;;;;;;;24.17;21.77;;;22.20;70.90;;;;;;5114208;28;20639;-87
2023/05/21 11:32:38;;;;;;;23.90;21.73;;;22.30;71.50;;;;;;5114692;28;20658;-87
2023/05/21 11:35:04;;;;;;;25.15;22.10;;;22.30;71.70;;;;;;5114467;28;20170;-87
2023/05/21 11:37:32;;;;;;;25.25;22.48;;;22.40;71.60;;;;;;5115267;28;20756;-87
2023/05/21 11:40:28;;;;;;;22.60;20.58;;;22.40;70.40;;;;;;5114471;28;20225;-87
2023/05/21 11:42:55;;;;;;;21.70;19.77;;;22.70;71.90;;;;;;5115435;28;20150;-87
2023/05/21 11:45:31;;;;;;;22.83;20.58;;;22.70;69.40;;;;;;5115452;28;20220;-87
2023/05/21 11:47:57;;;;;;;30.15;27.35;;;22.70;70.60;;;;;;5113468;28;20169;-87
2023/05/21 11:50:23;;;;;;;30.17;27.45;;;22.60;68.70;;;;;;5113847;28;20170;-87
2023/05/21 11:52:49;;;;;;;31.33;28.58;;;22.60;69.30;;;;;;5113815;28;20197;-87
2023/05/21 11:55:20;;;;;;;30.27;27.58;;;22.60;69.90;;;;;;5113928;28;20693;-87
2023/05/21 11:57:47;;;;;;;31.27;28.52;;;22.80;70.60;;;;;;5114962;28;20165;-87
2023/05/21 12:00:15;;;;;;;31.55;28.73;;;22.70;68.90;;;;;;5113834;28;20201;-87
2023/05/21 12:02:50;;;;;;;31.08;28.40;;;22.90;69.80;;;;;;5114846;28;20186;-87
2023/05/21 12:05:16;;;;;;;30.73;28.05;;;23.00;69.20;;;;;;5114796;28;20174;-87
2023/05/21 12:07:41;;;;;;;30.02;27.08;;;23.00;68.30;;;;;;5113631;28;20170;-87
2023/05/21 12:10:07;;;;;;;23.17;21.08;;;23.00;68.50;;;;;;5113534;28;20598;-87
2023/05/21 12:12:33;;;;;;;21.58;19.48;;;23.20;68.30;;;;;;5113439;28;20210;-87
2023/05/21 12:15:01;;;;;;;22.30;19.75;;;23.20;67.10;;;;;;5113416;28;20173;-87
2023/05/21 12:17:27;;;;;;;22.17;20.02;;;23.20;66.70;;;;;;5113447;28;20197;-88
2023/05/21 12:19:55;;;;;;;23.00;20.80;;;23.20;66.50;;;;;;5114518;28;20231;-88
2023/05/21 12:22:23;;;;;;;22.27;20.25;;;23.20;67.80;;;;;;5114491;28;20202;-88
2023/05/21 12:24:49;;;;;;;23.08;20.85;;;23.20;68.00;;;;;;5114567;28;20162;-88
2023/05/21 12:27:16;;;;;;;21.83;19.65;;;23.20;68.40;;;;;;5114383;28;20261;-88
2023/05/21 12:29:44;;;;;;;23.83;21.35;;;23.20;68.10;;;;;;5114459;28;20178;-87
2023/05/21 12:32:12;;;;;;;22.30;20.15;;;23.00;67.70;;;;;;5114355;28;20189;-88